sensor_id;sensor_type;location;lat;lon;timestamp;temperature;humidity
27619;DHT22;15039;50.830;4.730;2022-11-04T00:01:25;10.30;99.90
27619;DHT22;15039;50.830;4.730;2022-11-04T00:03:52;10.30;99.90
27619;DHT22;15039;50.830;4.730;2022-11-04T00:06:18;10.40;99.90
27619;DHT22;15039;50.830;4.730;2022-11-04T00:08:50;10.40;99.90
27619;DHT22;15039;50.830;4.730;2022-11-04T00:11:17;10.20;99.90
27619;DHT22;15039;50.830;4.730;2022-11-04T00:14:02;10.30;99.90
27619;DHT22;15039;50.830;4.730;2022-11-04T00:16:27;10.30;99.90
27619;DHT22;15039;50.830;4.730;2022-11-04T00:19:12;10.20;99.90
27619;DHT22;15039;50.830;4.730;2022-11-04T00:21:37;10.20;99.90
27619;DHT22;15039;50.830;4.730;2022-11-04T00:24:21;10.20;99.90
27619;DHT22;15039;50.830;4.730;2022-11-04T00:27:11;10.20;99.90
27619;DHT22;15039;50.830;4.730;2022-11-04T00:29:55;10.20;99.90
27619;DHT22;15039;50.830;4.730;2022-11-04T00:32:21;10.20;99.90
27619;DHT22;15039;50.830;4.730;2022-11-04T00:35:06;10.10;99.90
27619;DHT22;15039;50.830;4.730;2022-11-04T00:37:38;10.00;99.90
27619;DHT22;15039;50.830;4.730;2022-11-04T00:40:05;10.10;99.90
27619;DHT22;15039;50.830;4.730;2022-11-04T00:42:31;10.10;99.90
27619;DHT22;15039;50.830;4.730;2022-11-04T00:44:57;10.10;99.90
27619;DHT22;15039;50.830;4.730;2022-11-04T00:47:22;10.10;99.90
27619;DHT22;15039;50.830;4.730;2022-11-04T00:49:48;10.10;99.90
27619;DHT22;15039;50.830;4.730;2022-11-04T00:52:14;10.00;99.90
27619;DHT22;15039;50.830;4.730;2022-11-04T00:54:39;10.00;99.90
27619;DHT22;15039;50.830;4.730;2022-11-04T00:57:08;10.00;99.90
27619;DHT22;15039;50.830;4.730;2022-11-04T00:59:34;10.10;99.90
27619;DHT22;15039;50.830;4.730;2022-11-04T01:02:00;10.00;99.90
27619;DHT22;15039;50.830;4.730;2022-11-04T01:04:25;10.00;99.90
27619;DHT22;15039;50.830;4.730;2022-11-04T01:06:51;10.00;99.90
27619;DHT22;15039;50.830;4.730;2022-11-04T01:09:17;10.00;99.90
27619;DHT22;15039;50.830;4.730;2022-11-04T01:11:43;10.10;99.90
27619;DHT22;15039;50.830;4.730;2022-11-04T01:14:09;10.10;99.90
27619;DHT22;15039;50.830;4.730;2022-11-04T01:16:35;10.10;99.90
27619;DHT22;15039;50.830;4.730;2022-11-04T01:19:01;10.20;99.90
27619;DHT22;15039;50.830;4.730;2022-11-04T01:21:27;10.20;99.90
27619;DHT22;15039;50.830;4.730;2022-11-04T01:23:53;10.20;99.90
27619;DHT22;15039;50.830;4.730;2022-11-04T01:26:21;10.30;99.90
27619;DHT22;15039;50.830;4.730;2022-11-04T01:28:47;10.20;99.90
27619;DHT22;15039;50.830;4.730;2022-11-04T01:31:18;10.20;99.90
27619;DHT22;15039;50.830;4.730;2022-11-04T01:33:46;10.20;99.90
27619;DHT22;15039;50.830;4.730;2022-11-04T01:36:12;10.10;99.90
27619;DHT22;15039;50.830;4.730;2022-11-04T01:38:38;10.20;99.90
27619;DHT22;15039;50.830;4.730;2022-11-04T01:41:04;10.20;99.90
27619;DHT22;15039;50.830;4.730;2022-11-04T01:43:48;10.10;99.90
27619;DHT22;15039;50.830;4.730;2022-11-04T01:46:26;10.10;99.90
27619;DHT22;15039;50.830;4.730;2022-11-04T01:48:58;10.00;99.90
27619;DHT22;15039;50.830;4.730;2022-11-04T01:51:26;9.90;99.90
27619;DHT22;15039;50.830;4.730;2022-11-04T01:53:54;9.90;99.90
27619;DHT22;15039;50.830;4.730;2022-11-04T01:56:21;9.80;99.90
27619;DHT22;15039;50.830;4.730;2022-11-04T01:58:51;9.80;99.90
27619;DHT22;15039;50.830;4.730;2022-11-04T02:01:18;9.80;99.90
27619;DHT22;15039;50.830;4.730;2022-11-04T02:03:56;9.80;99.90
27619;DHT22;15039;50.830;4.730;2022-11-04T02:06:44;9.70;99.90
27619;DHT22;15039;50.830;4.730;2022-11-04T02:09:11;9.70;99.90
27619;DHT22;15039;50.830;4.730;2022-11-04T02:11:37;9.80;99.90
27619;DHT22;15039;50.830;4.730;2022-11-04T02:14:21;9.70;99.90
27619;DHT22;15039;50.830;4.730;2022-11-04T02:16:47;9.70;99.90
27619;DHT22;15039;50.830;4.730;2022-11-04T02:20:01;9.60;99.90
27619;DHT22;15039;50.830;4.730;2022-11-04T02:31:12;9.50;99.90
27619;DHT22;15039;50.830;4.730;2022-11-04T02:36:34;9.50;99.90
27619;DHT22;15039;50.830;4.730;2022-11-04T02:39:14;9.40;99.90
27619;DHT22;15039;50.830;4.730;2022-11-04T02:41:57;9.40;99.90
27619;DHT22;15039;50.830;4.730;2022-11-04T02:45:00;9.40;99.90
27619;DHT22;15039;50.830;4.730;2022-11-04T02:47:28;9.50;99.90
27619;DHT22;15039;50.830;4.730;2022-11-04T02:50:06;9.50;99.90
27619;DHT22;15039;50.830;4.730;2022-11-04T02:55:44;9.50;99.90
27619;DHT22;15039;50.830;4.730;2022-11-04T02:58:18;9.50;99.90
27619;DHT22;15039;50.830;4.730;2022-11-04T03:00:47;9.50;99.90
27619;DHT22;15039;50.830;4.730;2022-11-04T03:03:20;9.50;99.90
27619;DHT22;15039;50.830;4.730;2022-11-04T03:05:48;9.60;99.90
27619;DHT22;15039;50.830;4.730;2022-11-04T03:08:19;9.60;99.90
27619;DHT22;15039;50.830;4.730;2022-11-04T03:10:55;9.60;99.90
27619;DHT22;15039;50.830;4.730;2022-11-04T03:13:31;9.80;99.90
27619;DHT22;15039;50.830;4.730;2022-11-04T03:16:01;9.80;99.90
27619;DHT22;15039;50.830;4.730;2022-11-04T03:18:41;9.80;99.90
27619;DHT22;15039;50.830;4.730;2022-11-04T03:21:10;9.90;99.90
27619;DHT22;15039;50.830;4.730;2022-11-04T03:23:38;10.00;99.90
27619;DHT22;15039;50.830;4.730;2022-11-04T03:26:14;10.00;99.90
27619;DHT22;15039;50.830;4.730;2022-11-04T03:31:29;10.00;99.90
27619;DHT22;15039;50.830;4.730;2022-11-04T03:33:58;9.90;99.90
27619;DHT22;15039;50.830;4.730;2022-11-04T03:36:24;9.90;99.90
27619;DHT22;15039;50.830;4.730;2022-11-04T03:38:51;9.90;99.90
27619;DHT22;15039;50.830;4.730;2022-11-04T03:41:26;10.00;99.90
27619;DHT22;15039;50.830;4.730;2022-11-04T03:43:53;10.00;99.90
27619;DHT22;15039;50.830;4.730;2022-11-04T03:46:19;10.10;99.90
27619;DHT22;15039;50.830;4.730;2022-11-04T03:48:46;10.10;99.90
27619;DHT22;15039;50.830;4.730;2022-11-04T03:51:12;10.20;99.90
27619;DHT22;15039;50.830;4.730;2022-11-04T03:53:38;10.20;99.90
27619;DHT22;15039;50.830;4.730;2022-11-04T03:56:22;10.30;99.90
27619;DHT22;15039;50.830;4.730;2022-11-04T03:59:15;10.10;99.90
27619;DHT22;15039;50.830;4.730;2022-11-04T04:02:02;10.10;99.90
27619;DHT22;15039;50.830;4.730;2022-11-04T04:04:34;10.10;99.90
27619;DHT22;15039;50.830;4.730;2022-11-04T04:07:18;10.20;99.90
27619;DHT22;15039;50.830;4.730;2022-11-04T04:09:56;10.20;99.90
27619;DHT22;15039;50.830;4.730;2022-11-04T04:12:36;10.30;99.90
27619;DHT22;15039;50.830;4.730;2022-11-04T04:15:12;10.30;99.90
27619;DHT22;15039;50.830;4.730;2022-11-04T04:17:43;10.30;99.90
27619;DHT22;15039;50.830;4.730;2022-11-04T04:20:17;10.30;99.90
27619;DHT22;15039;50.830;4.730;2022-11-04T04:22:50;10.40;99.90
27619;DHT22;15039;50.830;4.730;2022-11-04T04:25:18;10.50;99.90
27619;DHT22;15039;50.830;4.730;2022-11-04T04:28:03;10.50;99.90
27619;DHT22;15039;50.830;4.730;2022-11-04T04:30:30;10.40;99.90
27619;DHT22;15039;50.830;4.730;2022-11-04T04:33:04;10.40;99.90
27619;DHT22;15039;50.830;4.730;2022-11-04T04:35:57;10.30;99.90
27619;DHT22;15039;50.830;4.730;2022-11-04T04:38:25;10.30;99.90
27619;DHT22;15039;50.830;4.730;2022-11-04T04:41:20;10.30;99.90
27619;DHT22;15039;50.830;4.730;2022-11-04T04:44:23;10.20;99.90
27619;DHT22;15039;50.830;4.730;2022-11-04T04:47:09;10.30;99.90
27619;DHT22;15039;50.830;4.730;2022-11-04T04:49:35;10.40;99.90
27619;DHT22;15039;50.830;4.730;2022-11-04T04:52:03;10.40;99.90
27619;DHT22;15039;50.830;4.730;2022-11-04T04:54:29;10.50;99.90
27619;DHT22;15039;50.830;4.730;2022-11-04T04:56:55;10.60;99.90
27619;DHT22;15039;50.830;4.730;2022-11-04T04:59:20;10.60;99.90
27619;DHT22;15039;50.830;4.730;2022-11-04T05:01:46;10.70;99.90
27619;DHT22;15039;50.830;4.730;2022-11-04T05:04:12;10.70;99.90
27619;DHT22;15039;50.830;4.730;2022-11-04T05:06:37;10.70;99.90
27619;DHT22;15039;50.830;4.730;2022-11-04T05:09:03;10.60;99.90
27619;DHT22;15039;50.830;4.730;2022-11-04T05:11:28;10.60;99.90
27619;DHT22;15039;50.830;4.730;2022-11-04T05:13:54;10.60;99.90
27619;DHT22;15039;50.830;4.730;2022-11-04T05:16:20;10.70;99.90
27619;DHT22;15039;50.830;4.730;2022-11-04T05:18:46;10.60;99.90
27619;DHT22;15039;50.830;4.730;2022-11-04T05:21:14;10.60;99.90
27619;DHT22;15039;50.830;4.730;2022-11-04T05:23:40;10.60;99.90
27619;DHT22;15039;50.830;4.730;2022-11-04T05:26:05;10.70;99.90
27619;DHT22;15039;50.830;4.730;2022-11-04T05:28:31;10.70;99.90
27619;DHT22;15039;50.830;4.730;2022-11-04T05:31:02;10.80;99.90
27619;DHT22;15039;50.830;4.730;2022-11-04T05:33:28;10.80;99.90
27619;DHT22;15039;50.830;4.730;2022-11-04T05:35:53;10.90;99.90
27619;DHT22;15039;50.830;4.730;2022-11-04T05:38:19;10.70;99.90
27619;DHT22;15039;50.830;4.730;2022-11-04T05:40:44;10.70;99.90
27619;DHT22;15039;50.830;4.730;2022-11-04T05:43:10;10.90;99.90
27619;DHT22;15039;50.830;4.730;2022-11-04T05:45:36;10.80;99.90
27619;DHT22;15039;50.830;4.730;2022-11-04T05:48:03;10.70;99.90
27619;DHT22;15039;50.830;4.730;2022-11-04T05:50:31;10.80;99.90
27619;DHT22;15039;50.830;4.730;2022-11-04T05:52:58;10.70;99.90
27619;DHT22;15039;50.830;4.730;2022-11-04T05:55:24;10.70;99.90
27619;DHT22;15039;50.830;4.730;2022-11-04T05:57:50;10.60;99.90
27619;DHT22;15039;50.830;4.730;2022-11-04T06:00:16;10.50;99.90
27619;DHT22;15039;50.830;4.730;2022-11-04T06:02:42;10.60;99.90
27619;DHT22;15039;50.830;4.730;2022-11-04T06:05:08;10.50;99.90
27619;DHT22;15039;50.830;4.730;2022-11-04T06:07:33;10.60;99.90
27619;DHT22;15039;50.830;4.730;2022-11-04T06:09:59;10.60;99.90
27619;DHT22;15039;50.830;4.730;2022-11-04T06:12:25;10.60;99.90
27619;DHT22;15039;50.830;4.730;2022-11-04T06:14:51;10.60;99.90
27619;DHT22;15039;50.830;4.730;2022-11-04T06:17:19;10.60;99.90
27619;DHT22;15039;50.830;4.730;2022-11-04T06:19:44;10.70;99.90
27619;DHT22;15039;50.830;4.730;2022-11-04T06:22:11;10.60;99.90
27619;DHT22;15039;50.830;4.730;2022-11-04T06:24:37;10.60;99.90
27619;DHT22;15039;50.830;4.730;2022-11-04T06:27:03;10.60;99.90
27619;DHT22;15039;50.830;4.730;2022-11-04T06:29:29;10.60;99.90
27619;DHT22;15039;50.830;4.730;2022-11-04T06:31:55;10.70;99.90
27619;DHT22;15039;50.830;4.730;2022-11-04T06:34:20;10.90;99.90
27619;DHT22;15039;50.830;4.730;2022-11-04T06:36:47;10.90;99.90
27619;DHT22;15039;50.830;4.730;2022-11-04T06:39:13;10.90;99.90
27619;DHT22;15039;50.830;4.730;2022-11-04T06:41:39;10.90;99.90
27619;DHT22;15039;50.830;4.730;2022-11-04T06:44:05;10.90;99.90
27619;DHT22;15039;50.830;4.730;2022-11-04T06:46:39;10.70;99.90
27619;DHT22;15039;50.830;4.730;2022-11-04T06:49:08;10.80;99.90
27619;DHT22;15039;50.830;4.730;2022-11-04T06:51:34;10.80;99.90
27619;DHT22;15039;50.830;4.730;2022-11-04T06:53:59;10.70;99.90
27619;DHT22;15039;50.830;4.730;2022-11-04T06:56:25;10.60;99.90
27619;DHT22;15039;50.830;4.730;2022-11-04T06:58:52;10.60;99.90
27619;DHT22;15039;50.830;4.730;2022-11-04T07:01:20;10.70;99.90
27619;DHT22;15039;50.830;4.730;2022-11-04T07:03:54;10.90;99.90
27619;DHT22;15039;50.830;4.730;2022-11-04T07:06:20;10.80;99.90
27619;DHT22;15039;50.830;4.730;2022-11-04T07:08:48;10.80;99.90
27619;DHT22;15039;50.830;4.730;2022-11-04T07:11:15;10.90;99.90
27619;DHT22;15039;50.830;4.730;2022-11-04T07:13:40;11.00;99.90
27619;DHT22;15039;50.830;4.730;2022-11-04T07:16:07;11.00;99.90
27619;DHT22;15039;50.830;4.730;2022-11-04T07:18:33;11.10;99.90
27619;DHT22;15039;50.830;4.730;2022-11-04T07:20:59;11.10;99.90
27619;DHT22;15039;50.830;4.730;2022-11-04T07:23:25;11.20;99.90
27619;DHT22;15039;50.830;4.730;2022-11-04T07:25:51;11.20;99.90
27619;DHT22;15039;50.830;4.730;2022-11-04T07:28:19;11.30;99.90
27619;DHT22;15039;50.830;4.730;2022-11-04T07:30:45;11.30;99.90
27619;DHT22;15039;50.830;4.730;2022-11-04T07:33:11;11.50;99.90
27619;DHT22;15039;50.830;4.730;2022-11-04T07:35:37;11.50;99.90
27619;DHT22;15039;50.830;4.730;2022-11-04T07:38:03;11.60;99.90
27619;DHT22;15039;50.830;4.730;2022-11-04T07:40:30;11.50;99.90
27619;DHT22;15039;50.830;4.730;2022-11-04T07:42:59;11.60;99.90
27619;DHT22;15039;50.830;4.730;2022-11-04T07:45:25;11.60;99.90
27619;DHT22;15039;50.830;4.730;2022-11-04T07:47:51;11.50;99.90
27619;DHT22;15039;50.830;4.730;2022-11-04T07:50:16;11.60;99.90
27619;DHT22;15039;50.830;4.730;2022-11-04T07:52:42;11.70;99.90
27619;DHT22;15039;50.830;4.730;2022-11-04T07:55:08;11.60;99.90
27619;DHT22;15039;50.830;4.730;2022-11-04T07:57:35;11.50;99.90
27619;DHT22;15039;50.830;4.730;2022-11-04T08:00:02;11.50;99.90
27619;DHT22;15039;50.830;4.730;2022-11-04T08:02:30;11.50;99.90
27619;DHT22;15039;50.830;4.730;2022-11-04T08:04:56;11.50;99.90
27619;DHT22;15039;50.830;4.730;2022-11-04T08:07:21;11.60;99.90
27619;DHT22;15039;50.830;4.730;2022-11-04T08:09:47;11.60;99.90
27619;DHT22;15039;50.830;4.730;2022-11-04T08:12:12;11.60;99.90
27619;DHT22;15039;50.830;4.730;2022-11-04T08:14:38;11.60;99.90
27619;DHT22;15039;50.830;4.730;2022-11-04T08:17:04;11.70;99.90
27619;DHT22;15039;50.830;4.730;2022-11-04T08:19:29;11.70;99.90
27619;DHT22;15039;50.830;4.730;2022-11-04T08:21:55;11.80;99.90
27619;DHT22;15039;50.830;4.730;2022-11-04T08:24:21;11.70;99.90
27619;DHT22;15039;50.830;4.730;2022-11-04T08:26:47;11.90;99.90
27619;DHT22;15039;50.830;4.730;2022-11-04T08:29:13;11.80;99.90
27619;DHT22;15039;50.830;4.730;2022-11-04T08:31:38;11.80;99.90
27619;DHT22;15039;50.830;4.730;2022-11-04T08:34:05;11.80;99.90
27619;DHT22;15039;50.830;4.730;2022-11-04T08:36:35;11.90;99.90
27619;DHT22;15039;50.830;4.730;2022-11-04T08:39:03;12.10;99.90
27619;DHT22;15039;50.830;4.730;2022-11-04T08:41:30;12.20;99.90
27619;DHT22;15039;50.830;4.730;2022-11-04T08:43:57;12.20;99.90
27619;DHT22;15039;50.830;4.730;2022-11-04T08:46:26;12.10;99.90
27619;DHT22;15039;50.830;4.730;2022-11-04T08:48:52;11.90;99.90
27619;DHT22;15039;50.830;4.730;2022-11-04T08:51:22;12.00;99.90
27619;DHT22;15039;50.830;4.730;2022-11-04T08:53:49;12.10;99.90
27619;DHT22;15039;50.830;4.730;2022-11-04T08:56:21;12.00;99.90
27619;DHT22;15039;50.830;4.730;2022-11-04T08:58:47;12.00;99.90
27619;DHT22;15039;50.830;4.730;2022-11-04T09:01:14;12.00;99.90
27619;DHT22;15039;50.830;4.730;2022-11-04T09:03:40;12.10;99.90
27619;DHT22;15039;50.830;4.730;2022-11-04T09:06:11;12.10;99.90
27619;DHT22;15039;50.830;4.730;2022-11-04T09:08:38;12.20;99.90
27619;DHT22;15039;50.830;4.730;2022-11-04T09:11:09;12.10;99.90
27619;DHT22;15039;50.830;4.730;2022-11-04T09:13:35;12.30;99.90
27619;DHT22;15039;50.830;4.730;2022-11-04T09:16:01;12.30;99.90
27619;DHT22;15039;50.830;4.730;2022-11-04T09:18:27;12.40;99.90
27619;DHT22;15039;50.830;4.730;2022-11-04T09:20:52;12.50;99.90
27619;DHT22;15039;50.830;4.730;2022-11-04T09:23:18;12.60;99.90
27619;DHT22;15039;50.830;4.730;2022-11-04T09:25:44;12.70;99.90
27619;DHT22;15039;50.830;4.730;2022-11-04T09:28:09;12.80;99.90
27619;DHT22;15039;50.830;4.730;2022-11-04T09:30:38;12.90;99.90
27619;DHT22;15039;50.830;4.730;2022-11-04T09:33:03;12.90;99.90
27619;DHT22;15039;50.830;4.730;2022-11-04T09:35:29;12.90;99.90
27619;DHT22;15039;50.830;4.730;2022-11-04T09:37:55;12.90;99.90
27619;DHT22;15039;50.830;4.730;2022-11-04T09:40:24;12.90;99.90
27619;DHT22;15039;50.830;4.730;2022-11-04T09:45:46;12.90;99.90
27619;DHT22;15039;50.830;4.730;2022-11-04T09:48:21;12.90;99.90
27619;DHT22;15039;50.830;4.730;2022-11-04T09:50:58;12.90;99.90
27619;DHT22;15039;50.830;4.730;2022-11-04T09:53:37;13.00;99.90
27619;DHT22;15039;50.830;4.730;2022-11-04T09:56:17;13.00;99.90
27619;DHT22;15039;50.830;4.730;2022-11-04T09:58:45;13.00;99.90
27619;DHT22;15039;50.830;4.730;2022-11-04T10:09:28;13.20;99.90
27619;DHT22;15039;50.830;4.730;2022-11-04T10:14:54;13.30;99.90
27619;DHT22;15039;50.830;4.730;2022-11-04T10:20:09;13.40;99.90
27619;DHT22;15039;50.830;4.730;2022-11-04T10:22:57;13.50;99.90
27619;DHT22;15039;50.830;4.730;2022-11-04T10:28:19;13.60;99.90
27619;DHT22;15039;50.830;4.730;2022-11-04T10:30:49;13.70;99.90
27619;DHT22;15039;50.830;4.730;2022-11-04T10:35:48;13.90;99.90
27619;DHT22;15039;50.830;4.730;2022-11-04T10:38:19;13.90;99.90
27619;DHT22;15039;50.830;4.730;2022-11-04T10:40:48;13.90;99.90
27619;DHT22;15039;50.830;4.730;2022-11-04T10:43:37;14.00;99.90
27619;DHT22;15039;50.830;4.730;2022-11-04T10:51:39;13.90;99.90
27619;DHT22;15039;50.830;4.730;2022-11-04T10:54:08;13.80;99.90
27619;DHT22;15039;50.830;4.730;2022-11-04T10:56:41;13.80;99.90
27619;DHT22;15039;50.830;4.730;2022-11-04T10:59:30;13.90;99.90
27619;DHT22;15039;50.830;4.730;2022-11-04T11:02:00;13.90;99.90
27619;DHT22;15039;50.830;4.730;2022-11-04T11:04:34;13.60;99.90
27619;DHT22;15039;50.830;4.730;2022-11-04T11:07:05;13.40;99.90
27619;DHT22;15039;50.830;4.730;2022-11-04T11:09:35;13.40;99.90
27619;DHT22;15039;50.830;4.730;2022-11-04T11:12:16;13.30;99.90
27619;DHT22;15039;50.830;4.730;2022-11-04T11:14:43;13.30;99.90
27619;DHT22;15039;50.830;4.730;2022-11-04T11:17:58;13.10;99.90
27619;DHT22;15039;50.830;4.730;2022-11-04T11:22:41;12.90;99.90
27619;DHT22;15039;50.830;4.730;2022-11-04T11:27:59;12.90;99.90
27619;DHT22;15039;50.830;4.730;2022-11-04T11:30:31;12.90;99.90
27619;DHT22;15039;50.830;4.730;2022-11-04T11:33:04;12.90;99.90
27619;DHT22;15039;50.830;4.730;2022-11-04T11:35:37;12.80;99.90
27619;DHT22;15039;50.830;4.730;2022-11-04T11:38:15;12.80;99.90
27619;DHT22;15039;50.830;4.730;2022-11-04T11:40:44;12.90;99.90
27619;DHT22;15039;50.830;4.730;2022-11-04T11:43:25;13.20;99.90
27619;DHT22;15039;50.830;4.730;2022-11-04T11:45:51;13.20;99.90
27619;DHT22;15039;50.830;4.730;2022-11-04T11:51:03;13.40;99.90
27619;DHT22;15039;50.830;4.730;2022-11-04T11:53:29;13.60;99.90
27619;DHT22;15039;50.830;4.730;2022-11-04T12:01:56;13.20;99.90
27619;DHT22;15039;50.830;4.730;2022-11-04T12:04:26;13.10;99.90
27619;DHT22;15039;50.830;4.730;2022-11-04T12:07:01;13.20;99.90
27619;DHT22;15039;50.830;4.730;2022-11-04T12:09:39;13.30;99.90
27619;DHT22;15039;50.830;4.730;2022-11-04T12:22:13;13.80;99.90
27619;DHT22;15039;50.830;4.730;2022-11-04T12:25:08;13.60;99.90
27619;DHT22;15039;50.830;4.730;2022-11-04T12:33:38;13.10;99.90
27619;DHT22;15039;50.830;4.730;2022-11-04T12:41:49;12.80;99.90
27619;DHT22;15039;50.830;4.730;2022-11-04T12:55:17;12.60;99.90
27619;DHT22;15039;50.830;4.730;2022-11-04T13:00:37;12.70;99.90
27619;DHT22;15039;50.830;4.730;2022-11-04T13:03:34;12.60;99.90
27619;DHT22;15039;50.830;4.730;2022-11-04T13:06:11;12.70;99.90
27619;DHT22;15039;50.830;4.730;2022-11-04T13:08:59;12.80;99.90
27619;DHT22;15039;50.830;4.730;2022-11-04T13:11:35;13.10;99.90
27619;DHT22;15039;50.830;4.730;2022-11-04T13:14:06;13.20;99.90
27619;DHT22;15039;50.830;4.730;2022-11-04T13:16:39;13.50;99.90
27619;DHT22;15039;50.830;4.730;2022-11-04T13:19:30;13.60;99.90
27619;DHT22;15039;50.830;4.730;2022-11-04T13:22:02;13.60;99.90
27619;DHT22;15039;50.830;4.730;2022-11-04T13:24:31;13.70;99.90
27619;DHT22;15039;50.830;4.730;2022-11-04T13:27:12;14.00;99.90
27619;DHT22;15039;50.830;4.730;2022-11-04T13:29:40;14.20;99.90
27619;DHT22;15039;50.830;4.730;2022-11-04T13:35:27;14.20;99.90
27619;DHT22;15039;50.830;4.730;2022-11-04T13:37:58;14.20;99.90
27619;DHT22;15039;50.830;4.730;2022-11-04T13:40:30;14.20;99.90
27619;DHT22;15039;50.830;4.730;2022-11-04T13:46:28;13.70;99.90
27619;DHT22;15039;50.830;4.730;2022-11-04T13:49:14;13.60;99.90
27619;DHT22;15039;50.830;4.730;2022-11-04T13:51:45;13.60;99.90
27619;DHT22;15039;50.830;4.730;2022-11-04T13:54:31;13.50;99.90
27619;DHT22;15039;50.830;4.730;2022-11-04T13:59:37;13.40;99.90
27619;DHT22;15039;50.830;4.730;2022-11-04T14:04:44;13.20;99.90
27619;DHT22;15039;50.830;4.730;2022-11-04T14:07:17;13.20;99.90
27619;DHT22;15039;50.830;4.730;2022-11-04T14:23:00;13.10;99.90
27619;DHT22;15039;50.830;4.730;2022-11-04T14:25:33;13.20;99.90
27619;DHT22;15039;50.830;4.730;2022-11-04T14:33:26;13.30;99.90
27619;DHT22;15039;50.830;4.730;2022-11-04T14:35:54;13.30;99.90
27619;DHT22;15039;50.830;4.730;2022-11-04T14:41:21;13.50;99.90
27619;DHT22;15039;50.830;4.730;2022-11-04T14:43:47;13.40;99.90
27619;DHT22;15039;50.830;4.730;2022-11-04T14:46:23;13.20;99.90
27619;DHT22;15039;50.830;4.730;2022-11-04T14:48:54;13.00;99.90
27619;DHT22;15039;50.830;4.730;2022-11-04T14:51:27;13.00;99.90
27619;DHT22;15039;50.830;4.730;2022-11-04T14:54:02;12.90;99.90
27619;DHT22;15039;50.830;4.730;2022-11-04T14:56:28;12.90;99.90
27619;DHT22;15039;50.830;4.730;2022-11-04T15:01:30;12.80;99.90
27619;DHT22;15039;50.830;4.730;2022-11-04T15:04:07;12.70;99.90
27619;DHT22;15039;50.830;4.730;2022-11-04T15:06:35;12.60;99.90
27619;DHT22;15039;50.830;4.730;2022-11-04T15:09:00;12.60;99.90
27619;DHT22;15039;50.830;4.730;2022-11-04T15:11:28;12.70;99.90
27619;DHT22;15039;50.830;4.730;2022-11-04T15:14:23;12.70;99.90
27619;DHT22;15039;50.830;4.730;2022-11-04T15:16:56;12.70;99.90
27619;DHT22;15039;50.830;4.730;2022-11-04T15:19:33;12.70;99.90
27619;DHT22;15039;50.830;4.730;2022-11-04T15:22:04;12.70;99.90
27619;DHT22;15039;50.830;4.730;2022-11-04T15:24:30;12.70;99.90
27619;DHT22;15039;50.830;4.730;2022-11-04T15:27:01;12.70;99.90
27619;DHT22;15039;50.830;4.730;2022-11-04T15:29:27;12.70;99.90
27619;DHT22;15039;50.830;4.730;2022-11-04T15:31:58;12.60;99.90
27619;DHT22;15039;50.830;4.730;2022-11-04T15:34:27;12.60;99.90
27619;DHT22;15039;50.830;4.730;2022-11-04T15:36:55;12.50;99.90
27619;DHT22;15039;50.830;4.730;2022-11-04T15:39:25;12.40;99.90
27619;DHT22;15039;50.830;4.730;2022-11-04T15:42:05;12.20;99.90
27619;DHT22;15039;50.830;4.730;2022-11-04T15:44:52;12.10;99.90
27619;DHT22;15039;50.830;4.730;2022-11-04T15:49:48;12.00;99.90
27619;DHT22;15039;50.830;4.730;2022-11-04T15:52:25;11.80;99.90
27619;DHT22;15039;50.830;4.730;2022-11-04T15:54:53;11.80;99.90
27619;DHT22;15039;50.830;4.730;2022-11-04T15:57:27;11.90;99.90
27619;DHT22;15039;50.830;4.730;2022-11-04T16:02:32;12.00;99.90
27619;DHT22;15039;50.830;4.730;2022-11-04T16:07:38;11.90;99.90
27619;DHT22;15039;50.830;4.730;2022-11-04T16:10:30;11.70;99.90
27619;DHT22;15039;50.830;4.730;2022-11-04T16:12:56;11.80;99.90
27619;DHT22;15039;50.830;4.730;2022-11-04T16:18:41;11.50;99.90
27619;DHT22;15039;50.830;4.730;2022-11-04T16:21:20;11.60;99.90
27619;DHT22;15039;50.830;4.730;2022-11-04T16:23:49;11.40;99.90
27619;DHT22;15039;50.830;4.730;2022-11-04T16:26:15;11.40;99.90
27619;DHT22;15039;50.830;4.730;2022-11-04T16:28:52;11.40;99.90
27619;DHT22;15039;50.830;4.730;2022-11-04T16:31:31;11.50;99.90
27619;DHT22;15039;50.830;4.730;2022-11-04T16:33:57;11.50;99.90
27619;DHT22;15039;50.830;4.730;2022-11-04T16:36:23;11.30;99.90
27619;DHT22;15039;50.830;4.730;2022-11-04T16:38:59;11.30;99.90
27619;DHT22;15039;50.830;4.730;2022-11-04T16:41:29;11.20;99.90
27619;DHT22;15039;50.830;4.730;2022-11-04T16:43:56;11.10;99.90
27619;DHT22;15039;50.830;4.730;2022-11-04T16:46:23;11.10;99.90
27619;DHT22;15039;50.830;4.730;2022-11-04T16:48:49;11.20;99.90
27619;DHT22;15039;50.830;4.730;2022-11-04T16:51:24;11.30;99.90
27619;DHT22;15039;50.830;4.730;2022-11-04T16:53:52;11.30;99.90
27619;DHT22;15039;50.830;4.730;2022-11-04T16:56:20;11.20;99.90
27619;DHT22;15039;50.830;4.730;2022-11-04T16:58:47;11.10;99.90
27619;DHT22;15039;50.830;4.730;2022-11-04T17:01:14;11.10;99.90
27619;DHT22;15039;50.830;4.730;2022-11-04T17:03:40;11.20;99.90
27619;DHT22;15039;50.830;4.730;2022-11-04T17:06:09;11.20;99.90
27619;DHT22;15039;50.830;4.730;2022-11-04T17:08:36;11.30;99.90
27619;DHT22;15039;50.830;4.730;2022-11-04T17:11:03;11.20;99.90
27619;DHT22;15039;50.830;4.730;2022-11-04T17:13:28;11.30;99.90
27619;DHT22;15039;50.830;4.730;2022-11-04T17:15:54;11.20;99.90
27619;DHT22;15039;50.830;4.730;2022-11-04T17:18:20;11.20;99.90
27619;DHT22;15039;50.830;4.730;2022-11-04T17:20:51;11.20;99.90
27619;DHT22;15039;50.830;4.730;2022-11-04T17:23:17;11.00;99.90
27619;DHT22;15039;50.830;4.730;2022-11-04T17:25:43;11.00;99.90
27619;DHT22;15039;50.830;4.730;2022-11-04T17:28:09;11.10;99.90
27619;DHT22;15039;50.830;4.730;2022-11-04T17:30:36;11.10;99.90
27619;DHT22;15039;50.830;4.730;2022-11-04T17:33:02;11.00;99.90
27619;DHT22;15039;50.830;4.730;2022-11-04T17:35:33;11.10;99.90
27619;DHT22;15039;50.830;4.730;2022-11-04T17:37:59;11.00;99.90
27619;DHT22;15039;50.830;4.730;2022-11-04T17:40:25;11.00;99.90
27619;DHT22;15039;50.830;4.730;2022-11-04T17:42:50;10.90;99.90
27619;DHT22;15039;50.830;4.730;2022-11-04T17:45:35;11.00;99.90
27619;DHT22;15039;50.830;4.730;2022-11-04T17:48:04;11.00;99.90
27619;DHT22;15039;50.830;4.730;2022-11-04T17:50:30;11.00;99.90
27619;DHT22;15039;50.830;4.730;2022-11-04T17:52:56;10.90;99.90
27619;DHT22;15039;50.830;4.730;2022-11-04T17:55:21;10.70;99.90
27619;DHT22;15039;50.830;4.730;2022-11-04T17:57:47;10.70;99.90
27619;DHT22;15039;50.830;4.730;2022-11-04T18:00:13;10.80;99.90
27619;DHT22;15039;50.830;4.730;2022-11-04T18:02:40;10.80;99.90
27619;DHT22;15039;50.830;4.730;2022-11-04T18:05:06;10.80;99.90
27619;DHT22;15039;50.830;4.730;2022-11-04T18:07:33;10.70;99.90
27619;DHT22;15039;50.830;4.730;2022-11-04T18:09:59;10.80;99.90
27619;DHT22;15039;50.830;4.730;2022-11-04T18:12:25;10.70;99.90
27619;DHT22;15039;50.830;4.730;2022-11-04T18:15:11;10.80;99.90